createdAt,value
2023-02-06T04:02:02.832Z,1.30
2023-02-06T04:04:34.255Z,1.20
2023-02-06T04:07:36.803Z,1.20
2023-02-06T04:10:04.287Z,1.20
2023-02-06T04:12:31.528Z,1.20
2023-02-06T04:14:58.749Z,1.20
2023-02-06T04:17:43.185Z,1.20
2023-02-06T04:20:13.380Z,1.20
2023-02-06T04:22:41.212Z,1.20
2023-02-06T04:25:09.102Z,1.20
2023-02-06T04:27:37.503Z,1.20
2023-02-06T04:30:06.248Z,1.20
2023-02-06T04:32:33.485Z,1.10
2023-02-06T04:35:00.705Z,1.10
2023-02-06T04:37:27.876Z,1.10
2023-02-06T04:39:55.012Z,1.10
2023-02-06T04:42:22.189Z,1.20
2023-02-06T04:44:49.345Z,1.20
2023-02-06T04:47:16.541Z,1.20
2023-02-06T04:49:43.742Z,1.10
2023-02-06T04:52:10.923Z,1.10
2023-02-06T04:54:38.163Z,1.10
2023-02-06T04:57:05.429Z,1.20
2023-02-06T04:59:32.611Z,1.20
2023-02-06T05:01:59.755Z,1.20
2023-02-06T05:04:27.162Z,1.20
2023-02-06T05:06:54.352Z,1.20
2023-02-06T05:09:21.546Z,1.20
2023-02-06T05:11:48.678Z,1.20
2023-02-06T05:14:15.844Z,1.10
2023-02-06T05:16:43.020Z,1.10
2023-02-06T05:19:10.884Z,1.00
2023-02-06T05:21:38.029Z,1.00
2023-02-06T05:24:05.645Z,1.00
2023-02-06T05:26:32.817Z,1.00
2023-02-06T05:29:00.027Z,1.00
2023-02-06T05:31:27.307Z,1.00
2023-02-06T05:33:55.087Z,0.90
2023-02-06T05:36:22.905Z,0.90
2023-02-06T05:38:50.254Z,0.90
2023-02-06T05:41:17.970Z,0.90
2023-02-06T05:43:45.398Z,1.00
2023-02-06T05:46:13.298Z,0.90
2023-02-06T05:48:41.087Z,0.90
2023-02-06T05:51:08.736Z,0.90
2023-02-06T05:53:36.225Z,0.80
2023-02-06T05:56:03.531Z,0.80
2023-02-06T05:58:31.207Z,0.70
2023-02-06T06:00:58.481Z,0.70
2023-02-06T06:03:25.810Z,0.70
2023-02-06T06:05:54.316Z,0.60
2023-02-06T06:08:22.237Z,0.60
2023-02-06T06:10:52.682Z,0.60
2023-02-06T06:13:20.121Z,0.50
2023-02-06T06:15:51.652Z,0.10
2023-02-06T06:18:20.566Z,0.00
2023-02-06T06:20:48.657Z,0.00
2023-02-06T06:23:16.025Z,0.00
2023-02-06T06:25:43.779Z,0.00
2023-02-06T06:28:11.049Z,-0.10
2023-02-06T06:30:38.351Z,-0.10
2023-02-06T06:33:05.594Z,-0.10
2023-02-06T06:35:33.250Z,-0.20
2023-02-06T06:38:00.401Z,-0.30
2023-02-06T06:40:27.588Z,-0.60
2023-02-06T06:42:54.729Z,-0.60
2023-02-06T06:45:22.020Z,-0.60
2023-02-06T06:47:49.169Z,-0.70
2023-02-06T06:50:16.400Z,-0.70
2023-02-06T06:52:43.596Z,-0.60
2023-02-06T06:55:11.120Z,-0.60
2023-02-06T06:57:38.257Z,-0.60
2023-02-06T07:00:05.882Z,-0.70
2023-02-06T07:02:33.066Z,-0.60
2023-02-06T07:05:00.407Z,-0.50
2023-02-06T07:07:27.743Z,-0.50
2023-02-06T07:09:55.155Z,-0.40
2023-02-06T07:12:22.448Z,-0.40
2023-02-06T07:14:49.613Z,-0.40
2023-02-06T07:17:16.931Z,-0.40
2023-02-06T07:19:48.085Z,-0.50
2023-02-06T07:22:15.689Z,-0.50
2023-02-06T07:24:43.148Z,-0.50
2023-02-06T07:27:10.550Z,-0.40
2023-02-06T07:29:38.101Z,-0.50
2023-02-06T07:32:06.195Z,-0.20
2023-02-06T07:34:33.864Z,-0.30
2023-02-06T07:37:01.114Z,-0.20
2023-02-06T07:39:28.293Z,-0.10
2023-02-06T07:41:55.525Z,-0.10
2023-02-06T07:44:22.693Z,-0.20
2023-02-06T07:46:51.913Z,-0.60
2023-02-06T07:49:19.084Z,-0.60
2023-02-06T07:51:46.797Z,-0.30
2023-02-06T07:54:14.063Z,-0.20
2023-02-06T07:56:41.264Z,-0.30
2023-02-06T07:59:08.492Z,-0.70
2023-02-06T08:01:35.966Z,-1.00
2023-02-06T08:04:03.604Z,-0.60
2023-02-06T08:06:30.820Z,-0.30
2023-02-06T08:08:58.088Z,-0.10
2023-02-06T08:11:27.769Z,-0.50
2023-02-06T08:13:54.939Z,-0.70
2023-02-06T08:16:23.430Z,-0.60
2023-02-06T08:18:50.972Z,-0.40
2023-02-06T08:21:21.523Z,-0.20
2023-02-06T08:23:57.706Z,-0.20
2023-02-06T08:26:27.007Z,-0.20
2023-02-06T08:28:56.029Z,-0.20
2023-02-06T08:31:26.536Z,-0.10
2023-02-06T08:33:54.792Z,0.10
2023-02-06T08:36:23.479Z,0.20
2023-02-06T08:38:51.483Z,0.20
2023-02-06T08:41:24.927Z,0.20
2023-02-06T08:43:54.537Z,0.30
2023-02-06T08:46:24.270Z,0.30
2023-02-06T08:49:04.743Z,0.40
2023-02-06T08:51:33.759Z,0.50
2023-02-06T08:54:04.021Z,0.50
2023-02-06T08:56:32.509Z,0.60
2023-02-06T08:59:00.247Z,0.50
2023-02-06T09:01:29.042Z,0.50
2023-02-06T09:03:58.408Z,0.50
2023-02-06T09:06:26.130Z,0.50
2023-02-06T09:08:53.717Z,0.50
2023-02-06T09:11:23.192Z,0.50
2023-02-06T09:13:51.428Z,0.70
2023-02-06T09:16:20.582Z,0.90
2023-02-06T09:18:48.857Z,0.90
2023-02-06T09:21:18.850Z,1.00
2023-02-06T09:23:49.178Z,1.20
2023-02-06T09:26:23.371Z,1.20
2023-02-06T09:29:01.629Z,1.30
2023-02-06T09:31:33.292Z,1.40
2023-02-06T09:34:00.818Z,1.60
2023-02-06T09:36:30.199Z,1.70
2023-02-06T09:38:58.207Z,1.80
2023-02-06T09:41:47.962Z,2.00
2023-02-06T09:44:35.494Z,2.10
2023-02-06T09:47:14.388Z,2.40
2023-02-06T09:49:58.613Z,2.60
2023-02-06T09:52:52.175Z,2.70
2023-02-06T09:55:42.823Z,2.70
2023-02-06T09:58:22.351Z,2.70
2023-02-06T10:01:02.597Z,2.80
2023-02-06T10:04:13.184Z,3.00
2023-02-06T10:06:47.406Z,3.00
2023-02-06T10:09:21.712Z,3.00
2023-02-06T10:12:03.324Z,2.90
2023-02-06T10:14:44.170Z,2.70
2023-02-06T10:17:20.231Z,2.40
2023-02-06T10:20:02.658Z,2.20
2023-02-06T10:23:04.533Z,2.20
2023-02-06T10:25:36.179Z,2.10
2023-02-06T10:28:14.553Z,2.00
2023-02-06T10:30:55.590Z,2.10
2023-02-06T10:33:48.914Z,2.20
2023-02-06T10:36:26.466Z,2.20
2023-02-06T10:38:57.481Z,2.10
2023-02-06T10:41:46.921Z,2.10
2023-02-06T10:44:30.736Z,2.00
2023-02-06T10:46:58.180Z,1.90
2023-02-06T10:49:30.278Z,1.90
2023-02-06T10:52:27.559Z,1.90
2023-02-06T10:55:05.112Z,2.00
2023-02-06T10:57:33.761Z,2.10
2023-02-06T11:00:02.844Z,2.40
2023-02-06T11:03:06.624Z,2.60
2023-02-06T11:05:35.881Z,2.90
2023-02-06T11:08:18.324Z,3.30
2023-02-06T11:10:46.532Z,3.30
2023-02-06T11:13:21.984Z,3.30
2023-02-06T11:16:02.720Z,3.10
2023-02-06T11:18:34.403Z,3.10
2023-02-06T11:21:02.420Z,2.80
2023-02-06T11:23:31.680Z,2.70
2023-02-06T11:26:19.770Z,2.90
2023-02-06T11:28:55.769Z,3.10
2023-02-06T11:31:46.352Z,3.10
2023-02-06T11:34:42.476Z,2.70
2023-02-06T11:37:31.157Z,2.40
2023-02-06T11:40:15.100Z,2.40
2023-02-06T11:42:42.542Z,2.30
2023-02-06T11:45:26.160Z,2.30
2023-02-06T11:47:53.775Z,2.10
2023-02-06T11:50:30.108Z,2.00
2023-02-06T11:53:09.389Z,2.10
2023-02-06T11:55:38.407Z,2.30
2023-02-06T11:58:14.644Z,2.60
2023-02-06T12:01:04.335Z,3.20
2023-02-06T12:03:33.486Z,3.40
2023-02-06T12:06:10.645Z,3.70
2023-02-06T12:08:54.015Z,4.20
2023-02-06T12:11:26.342Z,4.40
2023-02-06T12:14:09.318Z,4.30
2023-02-06T12:16:40.228Z,3.90
2023-02-06T12:19:15.742Z,3.30
2023-02-06T12:21:56.126Z,3.10
2023-02-06T12:24:36.042Z,3.00
2023-02-06T12:27:13.220Z,3.00
2023-02-06T12:29:58.983Z,3.00
2023-02-06T12:32:34.599Z,2.70
2023-02-06T12:35:16.134Z,2.80
2023-02-06T12:38:00.102Z,2.80
2023-02-06T12:40:54.421Z,2.60
2023-02-06T12:43:21.710Z,2.60
2023-02-06T12:45:52.442Z,2.50
2023-02-06T12:48:29.424Z,2.30
2023-02-06T12:51:12.400Z,2.30
2023-02-06T12:53:45.865Z,2.30
2023-02-06T12:56:35.610Z,2.40
2023-02-06T12:59:29.742Z,2.70
2023-02-06T13:02:22.092Z,2.60
2023-02-06T13:04:50.684Z,2.70
2023-02-06T13:07:21.444Z,2.50
2023-02-06T13:09:59.410Z,2.70
2023-02-06T13:12:30.325Z,2.80
2023-02-06T13:15:22.466Z,2.60
2023-02-06T13:17:52.589Z,2.70
2023-02-06T13:20:21.484Z,2.70
2023-02-06T13:23:14.858Z,2.60
2023-02-06T13:25:45.052Z,2.40
2023-02-06T13:28:25.536Z,2.10
2023-02-06T13:31:07.273Z,1.80
2023-02-06T13:33:47.112Z,1.80
2023-02-06T13:36:24.374Z,1.90
2023-02-06T13:38:56.648Z,1.90
2023-02-06T13:41:35.008Z,1.80
2023-02-06T13:44:15.740Z,1.80
2023-02-06T13:47:02.468Z,1.80
2023-02-06T13:49:48.368Z,1.80
2023-02-06T13:52:26.519Z,1.60
2023-02-06T13:55:40.746Z,1.60
2023-02-06T13:58:32.027Z,1.60
2023-02-06T14:01:00.901Z,1.60
2023-02-06T14:03:34.806Z,1.60
2023-02-06T14:06:11.380Z,1.40
2023-02-06T14:08:59.817Z,1.30
2023-02-06T14:12:07.545Z,1.10
2023-02-06T14:15:06.008Z,1.10
2023-02-06T14:17:50.250Z,1.10
2023-02-06T14:20:34.069Z,1.20
2023-02-06T14:23:25.498Z,1.10
2023-02-06T14:26:01.456Z,1.10
2023-02-06T14:28:49.209Z,1.10
2023-02-06T14:31:46.246Z,1.10
2023-02-06T14:34:43.455Z,1.10
2023-02-06T14:37:49.042Z,1.10
2023-02-06T14:40:27.626Z,1.00
2023-02-06T14:43:01.788Z,1.10
2023-02-06T14:45:41.794Z,1.10
2023-02-06T14:48:21.107Z,1.20
2023-02-06T14:50:56.597Z,1.30
2023-02-06T14:53:27.671Z,1.20
2023-02-06T14:56:08.030Z,1.30
2023-02-06T14:58:35.397Z,1.30
2023-02-06T15:01:34.869Z,1.30
2023-02-06T15:04:17.758Z,1.40
2023-02-06T15:06:57.828Z,1.40
2023-02-06T15:09:35.509Z,1.30
2023-02-06T15:12:17.917Z,1.40
2023-02-06T15:14:57.713Z,1.50
2023-02-06T15:17:28.950Z,1.40
2023-02-06T15:19:56.208Z,1.30
2023-02-06T15:22:28.883Z,1.30
2023-02-06T15:25:23.568Z,1.10
2023-02-06T15:28:01.658Z,0.90
2023-02-06T15:30:28.962Z,0.70
2023-02-06T15:32:56.435Z,0.60
2023-02-06T15:35:36.866Z,0.60
2023-02-06T15:38:13.336Z,0.60
2023-02-06T15:40:44.701Z,0.40
2023-02-06T15:43:20.011Z,0.50
2023-02-06T15:45:49.792Z,0.50
2023-02-06T15:48:37.542Z,0.40
2023-02-06T15:51:07.458Z,0.40
2023-02-06T15:53:43.089Z,0.30
2023-02-06T15:56:27.579Z,0.20
2023-02-06T15:59:00.661Z,0.10
2023-02-06T16:01:31.036Z,0.10
2023-02-06T16:04:09.337Z,0.10
2023-02-06T16:06:37.484Z,0.10
2023-02-06T16:09:07.331Z,0.00
2023-02-06T16:11:52.107Z,0.00
2023-02-06T16:14:40.424Z,0.00
2023-02-06T16:17:10.418Z,0.00
2023-02-06T16:19:45.097Z,0.00
2023-02-06T16:22:22.763Z,0.00
2023-02-06T16:24:51.926Z,-0.10
2023-02-06T16:27:22.319Z,-0.10
2023-02-06T16:29:53.180Z,-0.10
2023-02-06T16:32:24.663Z,-0.20
2023-02-06T16:34:52.560Z,-0.20
2023-02-06T16:37:28.712Z,-0.10
2023-02-06T16:39:56.219Z,-0.10
2023-02-06T16:42:35.158Z,-0.20
2023-02-06T16:45:08.059Z,-0.20
2023-02-06T16:47:35.264Z,-0.20
2023-02-06T16:50:02.498Z,-0.20
2023-02-06T16:52:32.942Z,-0.30
2023-02-06T16:55:01.107Z,-0.40
2023-02-06T16:57:41.756Z,-0.40
2023-02-06T17:00:20.608Z,-0.30
2023-02-06T17:02:49.314Z,-0.30
2023-02-06T17:05:16.539Z,-0.30
2023-02-06T17:07:43.996Z,-0.20
2023-02-06T17:10:14.062Z,-0.20
2023-02-06T17:12:41.786Z,-0.30
2023-02-06T17:15:12.191Z,-0.30
2023-02-06T17:17:40.028Z,-0.20
2023-02-06T17:20:19.987Z,-0.20
2023-02-06T17:22:48.400Z,-0.20
2023-02-06T17:25:16.533Z,-0.20
2023-02-06T17:27:43.784Z,-0.30
2023-02-06T17:30:18.432Z,-0.30
2023-02-06T17:32:45.903Z,-0.40
2023-02-06T17:35:13.295Z,-0.40
2023-02-06T17:37:41.089Z,-0.40
2023-02-06T17:40:11.702Z,-0.50
2023-02-06T17:42:39.002Z,-0.50
2023-02-06T17:45:06.557Z,-0.60
2023-02-06T17:47:33.725Z,-0.70
2023-02-06T17:50:00.973Z,-0.70
2023-02-06T17:52:28.170Z,-0.60
2023-02-06T17:54:55.350Z,-0.70
2023-02-06T17:57:22.515Z,-0.70
2023-02-06T17:59:53.167Z,-0.80
2023-02-06T18:02:20.344Z,-0.80
2023-02-06T18:04:51.184Z,-0.80
2023-02-06T18:07:18.451Z,-0.90
2023-02-06T18:09:47.068Z,-0.90
2023-02-06T18:12:15.460Z,-0.90
2023-02-06T18:14:42.790Z,-0.90
2023-02-06T18:17:10.003Z,-0.90
2023-02-06T18:19:41.881Z,-0.90
2023-02-06T18:22:13.464Z,-0.80
2023-02-06T18:24:41.007Z,-0.80
2023-02-06T18:27:08.991Z,-0.70
2023-02-06T18:29:49.362Z,-0.70
2023-02-06T18:32:18.103Z,-0.60
2023-02-06T18:34:45.943Z,-0.60
2023-02-06T18:37:13.470Z,-0.50
2023-02-06T18:39:40.712Z,-0.50
2023-02-06T18:42:26.660Z,-0.60
2023-02-06T18:44:53.885Z,-0.60
2023-02-06T18:47:21.039Z,-0.60
2023-02-06T18:49:48.265Z,-0.60
2023-02-06T18:52:16.371Z,-0.70
2023-02-06T18:54:43.906Z,-0.70
2023-02-06T18:57:11.159Z,-0.60
2023-02-06T18:59:38.357Z,-0.60
2023-02-06T19:02:05.803Z,-0.60
2023-02-06T19:04:35.378Z,-0.60
2023-02-06T19:07:02.734Z,-0.50
2023-02-06T19:09:29.897Z,-0.50
2023-02-06T19:11:57.178Z,-0.60
2023-02-06T19:14:25.356Z,-0.60
2023-02-06T19:16:52.971Z,-0.60
2023-02-06T19:19:20.741Z,-0.90
2023-02-06T19:21:48.015Z,-0.90
2023-02-06T19:24:18.350Z,-0.90
2023-02-06T19:26:45.631Z,-1.00
2023-02-06T19:29:34.339Z,-1.10
2023-02-06T19:32:05.068Z,-1.20
2023-02-06T19:34:36.061Z,-1.20
2023-02-06T19:37:04.786Z,-1.30
2023-02-06T19:39:34.194Z,-1.30
2023-02-06T19:42:06.416Z,-1.20
2023-02-06T19:44:34.172Z,-1.20
2023-02-06T19:47:01.578Z,-1.10
2023-02-06T19:49:28.966Z,-1.10
2023-02-06T19:51:56.377Z,-1.10
2023-02-06T19:54:23.600Z,-1.00
2023-02-06T19:56:50.880Z,-1.00
2023-02-06T19:59:26.946Z,-1.00
2023-02-06T20:02:00.173Z,-1.10
2023-02-06T20:04:30.548Z,-1.10
2023-02-06T20:06:58.332Z,-1.00
2023-02-06T20:09:28.247Z,-1.10
2023-02-06T20:11:56.345Z,-1.00
2023-02-06T20:14:24.440Z,-1.10
2023-02-06T20:16:51.921Z,-1.10
2023-02-06T20:19:23.231Z,-1.20
2023-02-06T20:21:54.233Z,-1.20
2023-02-06T20:24:25.883Z,-1.10
2023-02-06T20:26:56.360Z,-1.20
2023-02-06T20:29:35.790Z,-1.20
2023-02-06T20:32:04.556Z,-1.20
2023-02-06T20:34:32.163Z,-1.30
2023-02-06T20:36:59.408Z,-1.30
2023-02-06T20:39:27.572Z,-1.30
2023-02-06T20:41:55.172Z,-1.30
2023-02-06T20:44:22.659Z,-1.40
2023-02-06T20:46:49.915Z,-1.50
2023-02-06T20:49:22.679Z,-1.50
2023-02-06T20:51:50.147Z,-1.60
2023-02-06T20:54:21.183Z,-1.60
2023-02-06T20:56:49.005Z,-1.60
2023-02-06T20:59:17.699Z,-1.60
2023-02-06T21:01:45.041Z,-1.70
2023-02-06T21:04:14.489Z,-1.70
2023-02-06T21:06:42.182Z,-1.80
2023-02-06T21:09:10.548Z,-1.80
2023-02-06T21:11:46.243Z,-1.80
2023-02-06T21:14:14.647Z,-1.70
2023-02-06T21:16:43.811Z,-1.70
2023-02-06T21:19:13.811Z,-1.80
2023-02-06T21:21:41.218Z,-1.70
2023-02-06T21:24:09.132Z,-1.70
2023-02-06T21:26:37.006Z,-1.70
2023-02-06T21:29:08.804Z,-1.80
2023-02-06T21:31:38.653Z,-1.80
2023-02-06T21:34:21.585Z,-1.90
2023-02-06T21:36:49.450Z,-1.90
2023-02-06T21:39:20.174Z,-2.00
2023-02-06T21:41:51.593Z,-2.00
2023-02-06T21:44:19.051Z,-2.00
2023-02-06T21:46:46.294Z,-2.10
2023-02-06T21:49:13.590Z,-2.20
2023-02-06T21:51:41.018Z,-2.20
2023-02-06T21:54:08.859Z,-2.30
2023-02-06T21:56:40.481Z,-2.40
2023-02-06T21:59:09.481Z,-2.40
